Posted by: Patrick | March 29, 2010

Santa Ana winds 3/27/2010

Here is the METAR I got this morning before flight :

KWHP 270147Z 29012KT 25SM CLR 21/
KBUR 271353Z 34003KT 10SM CL R 09/01 A3008

After getting to KWHP, we find out that the Santa Ana winds are stronger than what I thought. My CFI decided not to fly today because of the gusty winds in surface and in altitude.

Advertisements

Leave a Reply

Fill in your details below or click an icon to log in:

WordPress.com Logo

You are commenting using your WordPress.com account. Log Out / Change )

Twitter picture

You are commenting using your Twitter account. Log Out / Change )

Facebook photo

You are commenting using your Facebook account. Log Out / Change )

Google+ photo

You are commenting using your Google+ account. Log Out / Change )

Connecting to %s

Categories

%d bloggers like this: